createdAt,value
2023-11-13T00:00:35.132Z,100914.59
2023-11-13T00:03:37.390Z,100918.09
2023-11-13T00:06:39.535Z,100918.09
2023-11-13T00:09:41.845Z,100901.28
2023-11-13T00:12:44.087Z,100926.22
2023-11-13T00:15:46.519Z,100926.03
2023-11-13T00:18:49.009Z,100914.56
2023-11-13T00:21:51.242Z,100917.09
2023-11-13T00:24:53.447Z,100923.06
2023-11-13T00:27:55.743Z,100924.06
2023-11-13T00:30:57.846Z,100931.75
2023-11-13T00:34:00.166Z,100938.41
2023-11-13T00:37:02.280Z,100931.84
2023-11-13T00:40:06.356Z,100938.03
2023-11-13T00:43:09.425Z,100927.50
2023-11-13T00:46:11.877Z,100930.19
2023-11-13T00:49:14.005Z,100934.41
2023-11-13T00:52:16.104Z,100939.53
2023-11-13T00:55:18.467Z,100937.03
2023-11-13T00:58:23.258Z,100939.53
2023-11-13T01:01:27.745Z,100948.34
2023-11-13T01:04:30.714Z,100928.06
2023-11-13T01:07:32.871Z,100944.78
2023-11-13T01:10:34.922Z,100951.69
2023-11-13T01:13:38.214Z,100947.09
2023-11-13T01:16:41.206Z,100941.88
2023-11-13T01:19:43.635Z,100948.81
2023-11-13T01:22:46.713Z,100954.22
2023-11-13T01:25:49.803Z,100956.84
2023-11-13T01:28:51.961Z,100952.19
2023-11-13T01:31:54.071Z,100964.16
2023-11-13T01:34:56.202Z,100956.03
2023-11-13T01:37:59.315Z,100977.31
2023-11-13T01:41:02.111Z,100974.59
2023-11-13T01:44:08.126Z,100985.91
2023-11-13T01:47:10.264Z,100994.97
2023-11-13T01:50:13.795Z,100971.91
2023-11-13T01:53:20.210Z,100992.47
2023-11-13T01:56:26.137Z,100984.81
2023-11-13T01:59:28.446Z,100988.72
2023-11-13T02:02:30.939Z,100980.69
2023-11-13T02:05:33.489Z,100986.09
2023-11-13T02:08:35.698Z,100987.97
2023-11-13T02:11:38.902Z,100989.84
2023-11-13T02:14:40.971Z,101001.81
2023-11-13T02:18:02.405Z,100999.47
2023-11-13T02:21:05.140Z,100993.59
2023-11-13T02:24:08.544Z,100997.31
2023-11-13T02:27:11.009Z,100999.38
2023-11-13T02:30:13.384Z,101000.59
2023-11-13T02:33:15.906Z,101003.66
2023-11-13T02:36:18.358Z,101020.06
2023-11-13T02:39:21.347Z,101003.34
2023-11-13T02:42:24.121Z,101021.78
2023-11-13T02:45:27.271Z,101026.66
2023-11-13T02:48:29.753Z,101029.44
2023-11-13T02:51:31.875Z,101042.25
2023-11-13T02:54:33.963Z,101036.66
2023-11-13T02:57:36.378Z,101050.00
2023-11-13T03:00:38.630Z,101051.03
2023-11-13T03:03:41.104Z,101048.53
2023-11-13T03:06:43.273Z,101048.53
2023-11-13T03:09:45.444Z,101041.84
2023-11-13T03:12:47.577Z,101049.28
2023-11-13T03:15:49.781Z,101043.22
2023-11-13T03:18:51.955Z,101050.53
2023-11-13T03:21:54.158Z,101048.81
2023-11-13T03:24:56.348Z,101059.50
2023-11-13T03:27:58.508Z,101036.03
2023-11-13T03:31:00.685Z,101044.53
2023-11-13T03:34:02.886Z,101051.53
2023-11-13T03:37:06.376Z,101047.81
2023-11-13T03:40:09.310Z,101037.81
2023-11-13T03:43:11.551Z,101043.22
2023-11-13T03:46:13.702Z,101041.34
2023-11-13T03:49:15.931Z,101036.16
2023-11-13T03:52:18.175Z,101034.44
2023-11-13T03:55:20.520Z,101046.97
2023-11-13T03:58:22.816Z,101031.81
2023-11-13T04:01:24.870Z,101051.25
2023-11-13T04:04:27.251Z,101051.91
2023-11-13T04:07:29.438Z,101034.78
2023-11-13T04:10:32.763Z,101061.59
2023-11-13T04:13:36.174Z,101061.00
2023-11-13T04:16:38.396Z,101070.28
2023-11-13T04:19:40.608Z,101077.75
2023-11-13T04:22:42.901Z,101085.84
2023-11-13T04:25:47.500Z,101075.88
2023-11-13T04:28:49.703Z,101075.69
2023-11-13T04:31:51.821Z,101085.13
2023-11-13T04:34:54.206Z,101082.91
2023-11-13T04:37:56.442Z,101073.72
2023-11-13T04:40:59.193Z,101093.75
2023-11-13T04:44:02.113Z,101102.09
2023-11-13T04:47:04.577Z,101106.41
2023-11-13T04:50:07.730Z,101119.38
2023-11-13T04:53:09.774Z,101112.53
2023-11-13T04:56:12.722Z,101118.97
2023-11-13T04:59:14.939Z,101129.41
2023-11-13T05:02:17.373Z,101116.75
2023-11-13T05:05:19.579Z,101124.19
2023-11-13T05:08:21.709Z,101122.44
2023-11-13T05:11:27.642Z,101114.81
2023-11-13T05:14:30.612Z,101122.91
2023-11-13T05:17:33.197Z,101132.72
2023-11-13T05:20:50.064Z,101138.59
2023-11-13T05:23:52.143Z,101134.88
2023-11-13T05:26:57.075Z,101135.03
2023-11-13T05:29:59.184Z,101132.31
2023-11-13T05:33:02.704Z,101143.75
2023-11-13T05:36:05.258Z,101156.50
2023-11-13T05:39:08.907Z,101156.94
2023-11-13T05:42:11.140Z,101154.53
2023-11-13T05:45:16.274Z,101153.06
2023-11-13T05:48:18.289Z,101168.16
2023-11-13T05:51:22.009Z,101168.44
2023-11-13T05:54:24.192Z,101164.72
2023-11-13T05:57:26.259Z,101170.19
2023-11-13T06:00:31.427Z,101167.66
2023-11-13T06:03:33.600Z,101169.50
2023-11-13T06:06:35.790Z,101173.56
2023-11-13T06:09:39.712Z,101166.16
2023-11-13T06:12:42.372Z,101180.38
2023-11-13T06:15:44.437Z,101174.97
2023-11-13T06:18:48.121Z,101180.78
2023-11-13T06:21:52.742Z,101184.59
2023-11-13T06:24:55.980Z,101183.94
2023-11-13T06:27:58.378Z,101196.09
2023-11-13T06:31:01.298Z,101192.91
2023-11-13T06:34:04.318Z,101198.16
2023-11-13T06:37:06.464Z,101191.72
2023-11-13T06:40:10.521Z,101193.97
2023-11-13T06:43:13.369Z,101188.34
2023-11-13T06:46:17.632Z,101184.03
2023-11-13T06:49:22.905Z,101183.38
2023-11-13T06:52:25.257Z,101185.69
2023-11-13T06:55:27.722Z,101193.28
2023-11-13T06:58:30.189Z,101189.34
2023-11-13T07:01:42.440Z,101163.50
2023-11-13T07:04:45.149Z,101184.91
2023-11-13T07:07:49.058Z,101177.88
2023-11-13T07:10:52.342Z,101171.94
2023-11-13T07:13:55.885Z,101180.19
2023-11-13T07:16:58.340Z,101188.97
2023-11-13T07:20:00.895Z,101191.56
2023-11-13T07:23:04.010Z,101189.03
2023-11-13T07:26:06.224Z,101194.09
2023-11-13T07:29:08.595Z,101185.03
2023-11-13T07:32:10.791Z,101192.44
2023-11-13T07:35:13.727Z,101203.34
2023-11-13T07:38:15.919Z,101206.94
2023-11-13T07:41:18.377Z,101206.53
2023-11-13T07:44:21.295Z,101194.47
2023-11-13T07:47:27.993Z,101191.66
2023-11-13T07:50:30.224Z,101199.75
2023-11-13T07:53:39.891Z,101197.41
2023-11-13T07:56:42.346Z,101211.13
2023-11-13T07:59:45.112Z,101209.56
2023-11-13T08:02:47.340Z,101198.88
2023-11-13T08:05:50.249Z,101206.38
2023-11-13T08:08:52.583Z,101201.78
2023-11-13T08:11:55.685Z,101204.59
2023-11-13T08:15:00.425Z,101202.06
2023-11-13T08:18:02.793Z,101200.69
2023-11-13T08:21:05.602Z,101205.25
2023-11-13T08:24:08.185Z,101192.16
2023-11-13T08:27:10.285Z,101202.38
2023-11-13T08:30:16.297Z,101201.16
2023-11-13T08:33:19.970Z,101201.34
2023-11-13T08:36:23.319Z,101191.72
2023-11-13T08:39:26.019Z,101185.81
2023-11-13T08:42:29.085Z,101191.25
2023-11-13T08:45:31.703Z,101184.78
2023-11-13T08:48:34.737Z,101191.31
2023-11-13T08:51:40.140Z,101198.25
2023-11-13T08:54:42.344Z,101193.88
2023-11-13T08:57:46.398Z,101194.50
2023-11-13T09:00:49.746Z,101194.13
2023-11-13T09:03:52.229Z,101180.94
2023-11-13T09:06:54.456Z,101179.00
2023-11-13T09:09:57.274Z,101180.28
2023-11-13T09:13:01.204Z,101196.66
2023-11-13T09:16:06.590Z,101188.44
2023-11-13T09:19:09.584Z,101185.25
2023-11-13T09:22:13.966Z,101183.38
2023-11-13T09:25:17.354Z,101166.84
2023-11-13T09:28:20.351Z,101172.25
2023-11-13T09:31:23.068Z,101169.63
2023-11-13T09:34:26.455Z,101166.72
2023-11-13T09:37:29.103Z,101157.41
2023-11-13T09:40:35.992Z,101149.94
2023-11-13T09:43:40.700Z,101149.06
2023-11-13T09:46:45.835Z,101151.53
2023-11-13T09:50:04.015Z,101142.09
2023-11-13T09:53:10.117Z,101127.59
2023-11-13T09:56:16.629Z,101139.94
2023-11-13T09:59:21.029Z,101127.97
2023-11-13T10:02:25.359Z,101131.34
2023-11-13T10:05:27.910Z,101108.25
2023-11-13T10:08:32.941Z,101101.59
2023-11-13T10:11:35.065Z,101105.63
2023-11-13T10:14:37.327Z,101111.72
2023-11-13T10:17:49.944Z,101102.28
2023-11-13T10:20:52.265Z,101093.38
2023-11-13T10:23:54.492Z,101092.28
2023-11-13T10:26:57.087Z,101102.53
2023-11-13T10:30:05.935Z,101094.78
2023-11-13T10:33:18.469Z,101089.94
2023-11-13T10:36:23.788Z,101088.50
2023-11-13T10:39:38.866Z,101080.75
2023-11-13T10:42:43.125Z,101090.41
2023-11-13T10:45:47.304Z,101095.81
2023-11-13T10:48:53.817Z,101077.19
2023-11-13T10:52:01.746Z,101079.72
2023-11-13T10:55:06.294Z,101084.50
2023-11-13T10:58:08.552Z,101077.38
2023-11-13T11:01:16.757Z,101069.94
2023-11-13T11:04:23.224Z,101066.56
2023-11-13T11:07:31.286Z,101064.91
2023-11-13T11:10:34.780Z,101068.09
2023-11-13T11:13:41.113Z,101062.22
2023-11-13T11:17:07.155Z,101053.13
2023-11-13T11:20:17.357Z,101041.03
2023-11-13T11:23:23.592Z,101045.78
2023-11-13T11:26:25.773Z,101044.66
2023-11-13T11:29:45.836Z,101037.22
2023-11-13T11:32:57.063Z,101039.75
2023-11-13T11:36:01.589Z,101043.31
2023-11-13T11:39:20.904Z,101034.72
2023-11-13T11:42:25.242Z,101032.63
2023-11-13T11:45:28.099Z,101033.97
2023-11-13T11:48:30.460Z,101019.53
2023-11-13T11:51:34.090Z,101011.00
2023-11-13T11:54:36.783Z,101012.88
2023-11-13T11:57:39.131Z,101011.69
2023-11-13T12:00:41.300Z,101005.31
2023-11-13T12:03:44.901Z,101002.41
2023-11-13T12:06:50.379Z,100992.84
2023-11-13T12:09:52.608Z,100997.44
2023-11-13T12:12:54.894Z,101002.72
2023-11-13T12:15:58.300Z,101002.78
2023-11-13T12:19:00.434Z,100990.38
2023-11-13T12:22:04.696Z,100983.94
2023-11-13T12:25:09.070Z,100992.13
2023-11-13T12:28:12.492Z,100996.72
2023-11-13T12:31:21.613Z,100992.59
2023-11-13T12:34:25.006Z,100999.31
2023-11-13T12:37:28.552Z,100997.28
2023-11-13T12:40:31.791Z,100997.75
2023-11-13T12:43:34.070Z,100998.97
2023-11-13T12:46:36.568Z,100992.38
2023-11-13T12:49:39.646Z,100995.50
2023-11-13T12:52:44.942Z,101005.84
2023-11-13T12:55:47.481Z,101003.66
2023-11-13T12:58:51.790Z,101011.00
2023-11-13T13:01:53.962Z,100998.28
2023-11-13T13:04:59.618Z,100990.94
2023-11-13T13:08:03.252Z,100998.13
2023-11-13T13:11:06.973Z,101007.09
2023-11-13T13:14:10.292Z,100998.28
2023-11-13T13:17:16.761Z,101002.50
2023-11-13T13:20:20.866Z,101006.28
2023-11-13T13:23:23.116Z,101011.00
2023-11-13T13:26:25.610Z,101017.13
2023-11-13T13:29:27.758Z,101011.31
2023-11-13T13:32:32.226Z,100999.31
2023-11-13T13:35:34.265Z,101008.59
2023-11-13T13:38:36.332Z,101005.88
2023-11-13T13:41:38.550Z,101006.06
2023-11-13T13:44:41.008Z,101008.78
2023-11-13T13:47:43.391Z,100994.72
2023-11-13T13:50:45.748Z,101003.69
2023-11-13T13:53:47.865Z,101019.16
2023-11-13T13:56:50.006Z,101020.56
2023-11-13T13:59:52.181Z,101024.31
2023-11-13T14:02:56.057Z,101017.69
2023-11-13T14:05:58.381Z,101025.81
2023-11-13T14:09:02.812Z,101024.50
2023-11-13T14:12:12.873Z,101034.50
2023-11-13T14:15:21.760Z,101037.06
2023-11-13T14:18:26.465Z,101030.38
2023-11-13T14:21:30.070Z,101017.19
2023-11-13T14:24:32.049Z,101016.66
2023-11-13T14:27:34.446Z,101025.34
2023-11-13T14:30:40.206Z,101027.78
2023-11-13T14:33:45.271Z,101024.78
2023-11-13T14:36:49.643Z,101028.06
2023-11-13T14:39:51.807Z,101027.81
2023-11-13T14:42:54.842Z,101043.50
2023-11-13T14:45:57.885Z,101028.34
2023-11-13T14:48:59.960Z,101041.06
2023-11-13T14:52:05.902Z,101021.03
2023-11-13T14:55:09.655Z,101032.56
2023-11-13T14:58:15.651Z,101048.25
2023-11-13T15:01:18.919Z,101050.84
2023-11-13T15:04:21.126Z,101045.63
2023-11-13T15:07:23.215Z,101047.59
2023-11-13T15:10:28.351Z,101045.25
2023-11-13T15:13:31.309Z,101056.94
2023-11-13T15:16:36.647Z,101062.84
2023-11-13T15:19:39.750Z,101052.69
2023-11-13T15:25:50.877Z,101069.78
2023-11-13T15:28:53.077Z,101071.66
2023-11-13T15:31:55.831Z,101067.91
2023-11-13T15:34:58.157Z,101075.28
2023-11-13T15:38:02.732Z,101081.88
2023-11-13T15:41:06.198Z,101078.13
2023-11-13T15:44:08.599Z,101083.63
2023-11-13T15:47:11.146Z,101078.88
2023-11-13T15:50:17.740Z,101072.09
2023-11-13T15:53:20.794Z,101072.56
2023-11-13T15:56:22.933Z,101079.31
2023-11-13T15:59:25.042Z,101082.88
2023-11-13T16:02:27.342Z,101084.16
2023-11-13T16:05:29.635Z,101073.09
2023-11-13T16:08:32.829Z,101055.97
2023-11-13T16:11:35.035Z,101055.78
2023-11-13T16:14:38.774Z,101041.94
2023-11-13T16:17:41.750Z,101053.53
2023-11-13T16:20:44.196Z,101045.56
2023-11-13T16:23:46.825Z,101049.47
2023-11-13T16:26:53.898Z,101042.38
2023-11-13T16:29:56.273Z,101040.94
2023-11-13T16:33:05.482Z,101029.88
2023-11-13T16:36:07.831Z,101018.88
2023-11-13T16:39:11.473Z,101019.91
2023-11-13T16:42:13.942Z,101027.44
2023-11-13T16:45:19.596Z,101031.56
2023-11-13T16:48:21.572Z,101034.94
2023-11-13T16:51:23.666Z,101043.72
2023-11-13T16:54:28.532Z,101040.31
2023-11-13T16:57:30.804Z,101027.75
2023-11-13T17:00:37.194Z,101028.78
2023-11-13T17:03:39.388Z,101023.13
2023-11-13T17:06:41.704Z,101027.34
2023-11-13T17:09:43.999Z,101020.66
2023-11-13T17:12:46.340Z,101033.16
2023-11-13T17:15:48.564Z,101029.41
2023-11-13T17:18:50.749Z,101021.72
2023-11-13T17:21:53.293Z,101021.72
2023-11-13T17:24:55.453Z,101014.94
2023-11-13T17:27:57.478Z,101017.19
2023-11-13T17:31:00.570Z,101003.56
2023-11-13T17:34:02.702Z,101002.66
2023-11-13T17:37:06.246Z,101023.16
2023-11-13T17:40:09.504Z,101014.47
2023-11-13T17:43:12.066Z,101005.22
2023-11-13T17:46:14.182Z,101003.19
2023-11-13T17:49:16.964Z,101001.69
2023-11-13T17:52:19.813Z,101000.97
2023-11-13T17:55:22.124Z,100991.94
2023-11-13T17:58:25.166Z,100993.25
2023-11-13T18:01:27.331Z,100985.28
2023-11-13T18:04:29.666Z,100962.44
2023-11-13T18:07:31.689Z,100967.06
2023-11-13T18:10:33.907Z,100975.34
2023-11-13T18:13:37.017Z,100983.13
2023-11-13T18:16:39.411Z,100989.78
2023-11-13T18:19:41.890Z,100981.19
2023-11-13T18:22:45.779Z,100994.00
2023-11-13T18:25:48.649Z,100983.06
2023-11-13T18:28:51.437Z,100980.56
2023-11-13T18:31:55.965Z,100989.56
2023-11-13T18:34:58.174Z,100974.97
2023-11-13T18:38:01.972Z,100982.13
2023-11-13T18:41:04.136Z,100980.63
2023-11-13T18:44:06.584Z,100979.44
2023-11-13T18:47:08.815Z,100972.50
2023-11-13T18:50:11.661Z,100971.28
2023-11-13T18:53:13.703Z,100956.56
2023-11-13T18:56:16.423Z,100968.88
2023-11-13T18:59:19.177Z,100976.75
2023-11-13T19:02:21.540Z,100979.25
2023-11-13T19:05:23.678Z,100976.47
2023-11-13T19:08:29.073Z,100971.44
2023-11-13T19:11:31.089Z,100958.91
2023-11-13T19:14:33.271Z,100983.88
2023-11-13T19:17:39.575Z,100964.06
2023-11-13T19:20:43.409Z,100959.66
2023-11-13T19:23:45.556Z,100967.53
2023-11-13T19:26:50.134Z,100962.00
2023-11-13T19:29:52.253Z,100950.69
2023-11-13T19:33:01.298Z,100960.00
2023-11-13T19:36:07.239Z,100966.56
2023-11-13T19:39:12.306Z,100962.34
2023-11-13T19:42:14.425Z,100994.41
2023-11-13T19:45:16.843Z,100996.19
2023-11-13T19:48:20.585Z,100988.59
2023-11-13T19:51:23.115Z,100975.72
2023-11-13T19:54:25.647Z,100974.03
2023-11-13T19:57:27.821Z,100976.56
2023-11-13T20:00:30.179Z,100979.06
2023-11-13T20:03:33.466Z,100979.81
2023-11-13T20:06:35.746Z,100972.91
2023-11-13T20:09:41.121Z,100981.97
2023-11-13T20:12:43.812Z,100971.31
2023-11-13T20:15:46.494Z,100970.28
2023-11-13T20:18:48.697Z,100961.22
2023-11-13T20:21:50.785Z,100962.72
2023-11-13T20:24:52.918Z,100978.03
2023-11-13T20:27:55.161Z,100966.16
2023-11-13T20:30:57.321Z,100964.00
2023-11-13T20:34:02.979Z,100958.91
2023-11-13T20:37:07.203Z,100964.59
2023-11-13T20:40:10.125Z,100971.03
2023-11-13T20:43:12.232Z,100956.09
2023-11-13T20:46:14.358Z,100963.28
2023-11-13T20:49:16.731Z,100955.78
2023-11-13T20:52:19.943Z,100952.44
2023-11-13T20:55:22.275Z,100951.97
2023-11-13T20:58:25.374Z,100947.88
2023-11-13T21:01:27.570Z,100939.84
2023-11-13T21:04:30.387Z,100939.47
2023-11-13T21:07:33.044Z,100944.88
2023-11-13T21:10:35.422Z,100931.88
2023-11-13T21:13:37.730Z,100922.00
2023-11-13T21:16:40.022Z,100926.66
2023-11-13T21:19:43.263Z,100922.56
2023-11-13T21:22:46.133Z,100899.13
2023-11-13T21:25:48.557Z,100904.34
2023-11-13T21:28:50.662Z,100892.66
2023-11-13T21:31:55.071Z,100906.09
2023-11-13T21:34:57.258Z,100900.31
2023-11-13T21:37:59.284Z,100888.34
2023-11-13T21:41:02.563Z,100890.53
2023-11-13T21:44:05.253Z,100895.09
2023-11-13T21:47:07.505Z,100891.06
2023-11-13T21:50:14.157Z,100896.88
2023-11-13T21:53:17.964Z,100886.03
2023-11-13T21:56:19.983Z,100869.50
2023-11-13T21:59:23.964Z,100874.06
2023-11-13T22:02:26.631Z,100863.88
2023-11-13T22:05:30.940Z,100874.81
2023-11-13T22:08:32.984Z,100859.50
2023-11-13T22:11:35.423Z,100854.44
2023-11-13T22:14:37.660Z,100860.63
2023-11-13T22:17:40.153Z,100860.44
2023-11-13T22:20:42.687Z,100858.47
2023-11-13T22:23:46.297Z,100859.38
2023-11-13T22:26:48.555Z,100849.41
2023-11-13T22:29:50.631Z,100867.03
2023-11-13T22:32:52.858Z,100863.19
2023-11-13T22:35:54.942Z,100865.72
2023-11-13T22:38:58.508Z,100859.66
2023-11-13T22:42:01.068Z,100850.03
2023-11-13T22:45:04.023Z,100851.56
2023-11-13T22:48:06.815Z,100856.47
2023-11-13T22:51:08.878Z,100847.50
2023-11-13T22:54:11.628Z,100851.47
2023-11-13T22:57:13.749Z,100841.84
2023-11-13T23:00:26.809Z,100823.47
2023-11-13T23:03:30.074Z,100828.78
2023-11-13T23:06:34.186Z,100836.31
2023-11-13T23:09:38.672Z,100852.56
2023-11-13T23:12:41.627Z,100842.88
2023-11-13T23:15:46.598Z,100845.69
2023-11-13T23:18:55.964Z,100850.44
2023-11-13T23:22:03.795Z,100844.38
2023-11-13T23:25:09.351Z,100835.88
2023-11-13T23:28:11.704Z,100826.66
2023-11-13T23:31:14.548Z,100827.56
2023-11-13T23:34:17.717Z,100820.97
2023-11-13T23:37:20.546Z,100814.06
2023-11-13T23:40:22.615Z,100829.28
2023-11-13T23:43:24.628Z,100832.16
2023-11-13T23:46:26.772Z,100830.03
2023-11-13T23:49:29.763Z,100836.63
2023-11-13T23:52:31.917Z,100836.47
2023-11-13T23:55:34.159Z,100813.41
2023-11-13T23:58:36.330Z,100846.66
